createdAt,value
2019-05-09T00:00:23.463Z,6.40
2019-05-09T00:02:54.028Z,6.30
2019-05-09T00:05:25.264Z,6.30
2019-05-09T00:07:53.195Z,6.30
2019-05-09T00:10:37.555Z,6.30
2019-05-09T00:12:53.913Z,6.30
2019-05-09T00:15:24.081Z,6.20
2019-05-09T00:17:53.273Z,6.20
2019-05-09T00:20:29.054Z,6.20
2019-05-09T00:22:57.499Z,6.20
2019-05-09T00:25:25.946Z,6.20
2019-05-09T00:27:54.495Z,6.20
2019-05-09T00:30:24.560Z,6.20
2019-05-09T00:32:53.466Z,6.20
2019-05-09T00:35:23.587Z,6.10
2019-05-09T00:37:53.729Z,6.10
2019-05-09T00:40:23.917Z,6.10
2019-05-09T00:42:54.030Z,6.10
2019-05-09T00:45:28.006Z,6.10
2019-05-09T00:47:56.443Z,6.00
2019-05-09T00:50:24.883Z,5.90
2019-05-09T00:52:53.829Z,5.80
2019-05-09T00:55:23.932Z,5.80
2019-05-09T00:57:53.467Z,5.70
2019-05-09T01:00:24.094Z,5.70
2019-05-09T01:02:54.160Z,5.60
2019-05-09T01:05:23.933Z,5.60
2019-05-09T01:07:53.784Z,5.70
2019-05-09T01:10:23.753Z,5.70
2019-05-09T01:12:54.253Z,5.80
2019-05-09T01:15:23.991Z,5.80
2019-05-09T01:17:53.653Z,5.80
2019-05-09T01:20:24.187Z,5.80
2019-05-09T01:22:54.086Z,5.90
2019-05-09T01:25:24.044Z,5.90
2019-05-09T01:27:53.893Z,5.90
2019-05-09T01:30:24.147Z,6.00
2019-05-09T01:33:10.842Z,6.00
2019-05-09T01:35:39.275Z,6.00
2019-05-09T01:38:07.719Z,6.00
2019-05-09T01:40:36.151Z,6.10
2019-05-09T01:43:04.686Z,6.10
2019-05-09T01:45:34.256Z,6.10
2019-05-09T01:48:03.386Z,6.10
2019-05-09T01:50:33.902Z,6.10
2019-05-09T01:53:03.998Z,6.10
2019-05-09T01:55:49.966Z,6.20
2019-05-09T01:58:18.429Z,6.10
2019-05-09T02:00:46.863Z,6.20
2019-05-09T02:03:15.314Z,6.20
2019-05-09T02:05:43.755Z,6.20
2019-05-09T02:08:14.280Z,6.20
2019-05-09T02:10:44.201Z,6.20
2019-05-09T02:13:13.678Z,6.20
2019-05-09T02:16:00.030Z,6.20
2019-05-09T02:18:30.119Z,6.20
2019-05-09T02:20:58.566Z,6.10
2019-05-09T02:23:27.190Z,6.10
2019-05-09T02:25:55.631Z,6.10
2019-05-09T02:28:24.083Z,6.00
2019-05-09T02:30:55.025Z,6.00
2019-05-09T02:33:25.039Z,5.90
2019-05-09T02:36:00.807Z,5.90
2019-05-09T02:38:23.236Z,5.90
2019-05-09T02:40:51.711Z,5.80
2019-05-09T02:43:20.153Z,5.80
2019-05-09T02:45:52.824Z,5.70
2019-05-09T02:48:20.446Z,5.70
2019-05-09T02:50:48.892Z,5.50
2019-05-09T02:53:18.907Z,5.40
2019-05-09T02:55:49.541Z,5.40
2019-05-09T02:58:20.566Z,5.30
2019-05-09T03:00:53.747Z,5.20
2019-05-09T03:03:23.820Z,5.20
2019-05-09T03:05:52.347Z,5.20
2019-05-09T03:08:20.770Z,5.20
2019-05-09T03:10:49.439Z,5.10
2019-05-09T03:13:19.054Z,5.10
2019-05-09T03:15:49.623Z,5.10
2019-05-09T03:18:18.515Z,5.00
2019-05-09T03:20:51.636Z,5.00
2019-05-09T03:23:20.147Z,4.90
2019-05-09T03:25:48.674Z,4.80
2019-05-09T03:28:28.431Z,4.80
2019-05-09T03:30:59.435Z,4.70
2019-05-09T03:33:29.611Z,4.70
2019-05-09T03:35:58.246Z,4.70
2019-05-09T03:38:28.428Z,4.80
2019-05-09T03:40:58.046Z,4.80
2019-05-09T03:43:27.465Z,4.80
2019-05-09T03:46:00.450Z,4.80
2019-05-09T03:48:47.703Z,4.70
2019-05-09T03:51:15.526Z,4.80
2019-05-09T03:53:43.962Z,4.90
2019-05-09T03:56:30.128Z,4.90
2019-05-09T03:58:58.555Z,5.00
2019-05-09T04:01:28.034Z,5.10
2019-05-09T04:03:58.406Z,5.10
2019-05-09T04:06:28.201Z,5.10
2019-05-09T04:08:58.531Z,5.10
2019-05-09T04:11:27.659Z,5.20
2019-05-09T04:13:58.561Z,5.20
2019-05-09T04:16:27.692Z,5.30
2019-05-09T04:18:58.170Z,5.30
2019-05-09T04:21:28.014Z,5.30
2019-05-09T04:23:58.504Z,5.30
2019-05-09T04:26:40.453Z,5.40
2019-05-09T04:29:08.890Z,5.50
2019-05-09T04:31:38.413Z,5.50
2019-05-09T04:34:09.401Z,5.60
2019-05-09T04:36:39.879Z,5.60
2019-05-09T04:39:12.584Z,5.70
2019-05-09T04:41:40.382Z,5.80
2019-05-09T04:44:16.786Z,5.80
2019-05-09T04:46:40.632Z,5.90
2019-05-09T04:49:09.179Z,5.90
2019-05-09T04:51:39.303Z,5.90
2019-05-09T04:54:07.942Z,5.90
2019-05-09T04:56:38.278Z,5.90
2019-05-09T04:59:07.514Z,6.00
2019-05-09T05:01:47.745Z,6.00
2019-05-09T05:04:18.073Z,6.10
2019-05-09T05:06:47.801Z,6.10
2019-05-09T05:09:20.507Z,6.10
2019-05-09T05:11:49.085Z,6.10
2019-05-09T05:14:22.441Z,6.10
2019-05-09T05:16:53.823Z,6.10
2019-05-09T05:19:22.632Z,6.10
2019-05-09T05:21:51.147Z,6.00
2019-05-09T05:24:24.210Z,6.00
2019-05-09T05:26:52.735Z,6.00
2019-05-09T05:29:21.239Z,6.00
2019-05-09T05:31:50.564Z,6.00
2019-05-09T05:34:23.423Z,6.10
2019-05-09T05:36:51.874Z,6.20
2019-05-09T05:39:20.668Z,6.20
2019-05-09T05:41:49.278Z,6.40
2019-05-09T05:44:17.929Z,6.50
2019-05-09T05:46:58.524Z,6.70
2019-05-09T05:49:27.994Z,6.80
2019-05-09T05:51:57.668Z,6.90
2019-05-09T05:54:27.661Z,6.90
2019-05-09T05:56:57.800Z,6.80
2019-05-09T05:59:28.666Z,6.80
2019-05-09T06:01:58.324Z,6.90
2019-05-09T06:04:27.643Z,7.00
2019-05-09T06:06:58.644Z,7.10
2019-05-09T06:09:28.102Z,7.30
2019-05-09T06:11:57.714Z,7.40
2019-05-09T06:14:28.389Z,7.60
2019-05-09T06:16:58.806Z,7.90
2019-05-09T06:19:28.650Z,7.80
2019-05-09T06:21:57.450Z,7.80
2019-05-09T06:24:28.041Z,7.70
2019-05-09T06:26:58.539Z,7.50
2019-05-09T06:29:28.546Z,7.50
2019-05-09T06:31:58.442Z,7.40
2019-05-09T06:34:27.753Z,7.50
2019-05-09T06:36:58.616Z,7.70
2019-05-09T06:39:28.462Z,7.80
2019-05-09T06:41:57.510Z,7.90
2019-05-09T06:44:30.684Z,7.80
2019-05-09T06:47:15.558Z,7.70
2019-05-09T06:49:50.134Z,7.60
2019-05-09T06:52:18.664Z,7.60
2019-05-09T06:54:48.629Z,7.60
2019-05-09T06:57:18.646Z,7.60
2019-05-09T06:59:48.759Z,7.60
2019-05-09T07:02:19.024Z,7.50
2019-05-09T07:04:49.112Z,7.60
2019-05-09T07:07:28.097Z,7.70
2019-05-09T07:09:58.717Z,7.80
2019-05-09T07:12:27.479Z,8.00
2019-05-09T07:14:58.078Z,8.00
2019-05-09T07:17:31.837Z,8.00
2019-05-09T07:19:58.743Z,8.00
2019-05-09T07:22:28.264Z,8.00
2019-05-09T07:25:06.043Z,8.10
2019-05-09T07:27:33.106Z,8.20
2019-05-09T07:30:25.170Z,8.20
2019-05-09T07:33:04.183Z,8.20
2019-05-09T07:35:32.645Z,8.20
2019-05-09T07:38:01.094Z,8.20
2019-05-09T07:40:30.684Z,8.40
2019-05-09T07:42:59.398Z,8.60
2019-05-09T07:45:28.221Z,8.90
2019-05-09T07:47:58.420Z,9.30
2019-05-09T07:50:27.655Z,9.40
2019-05-09T07:52:58.115Z,9.80
2019-05-09T07:55:27.446Z,10.00
2019-05-09T07:57:58.743Z,10.00
2019-05-09T08:00:32.276Z,10.30
2019-05-09T08:03:00.790Z,10.50
2019-05-09T08:05:30.072Z,10.60
2019-05-09T08:07:58.753Z,10.70
2019-05-09T08:10:30.639Z,10.50
2019-05-09T08:12:58.503Z,10.30
2019-05-09T08:15:28.023Z,10.30
2019-05-09T08:17:59.062Z,10.40
2019-05-09T08:20:27.706Z,10.70
2019-05-09T08:23:00.678Z,11.20
2019-05-09T08:25:27.724Z,11.70
2019-05-09T08:27:58.558Z,12.20
2019-05-09T08:30:32.969Z,12.40
2019-05-09T08:32:56.787Z,12.20
2019-05-09T08:35:27.856Z,11.70
2019-05-09T08:37:58.026Z,11.50
2019-05-09T08:40:28.423Z,11.40
2019-05-09T08:42:58.505Z,11.60
2019-05-09T08:45:30.760Z,11.60
2019-05-09T08:47:57.721Z,11.50
2019-05-09T08:50:40.151Z,11.70
2019-05-09T08:53:08.651Z,11.60
2019-05-09T08:55:38.356Z,11.50
2019-05-09T08:58:08.065Z,11.50
2019-05-09T09:00:38.757Z,11.50
2019-05-09T09:03:08.042Z,11.10
2019-05-09T09:05:38.176Z,11.00
2019-05-09T09:08:08.272Z,11.20
2019-05-09T09:10:38.534Z,10.80
2019-05-09T09:13:08.954Z,10.60
2019-05-09T09:16:02.917Z,10.70
2019-05-09T09:18:08.577Z,10.50
2019-05-09T09:20:38.029Z,10.50
2019-05-09T09:23:08.969Z,10.40
2019-05-09T09:25:38.938Z,10.60
2019-05-09T09:28:08.781Z,11.10
2019-05-09T09:30:38.675Z,11.50
2019-05-09T09:33:10.118Z,11.70
2019-05-09T09:35:38.287Z,11.90
2019-05-09T09:38:09.102Z,11.70
2019-05-09T09:40:38.560Z,11.40
2019-05-09T09:43:09.304Z,10.90
2019-05-09T09:45:37.872Z,10.80
2019-05-09T09:48:08.938Z,11.10
2019-05-09T09:50:38.371Z,11.60
2019-05-09T09:53:08.840Z,11.80
2019-05-09T09:55:38.408Z,12.30
2019-05-09T09:58:08.276Z,12.30
2019-05-09T10:00:51.921Z,12.40
2019-05-09T10:03:20.437Z,12.50
2019-05-09T10:05:48.885Z,12.40
2019-05-09T10:08:18.108Z,12.10
2019-05-09T10:10:48.404Z,12.10
2019-05-09T10:13:18.533Z,12.10
2019-05-09T10:15:51.345Z,12.10
2019-05-09T10:18:24.363Z,12.10
2019-05-09T10:21:06.323Z,12.20
2019-05-09T10:23:34.878Z,12.40
2019-05-09T10:26:03.319Z,12.60
2019-05-09T10:28:31.814Z,12.60
2019-05-09T10:31:00.324Z,12.00
2019-05-09T10:33:29.366Z,11.70
2019-05-09T10:36:04.306Z,11.40
2019-05-09T10:38:28.128Z,10.90
2019-05-09T10:41:01.127Z,10.60
2019-05-09T10:43:38.434Z,10.50
2019-05-09T10:46:19.280Z,10.50
2019-05-09T10:48:49.723Z,10.60
2019-05-09T10:51:18.663Z,10.90
2019-05-09T10:53:48.177Z,11.20
2019-05-09T10:56:18.798Z,11.80
2019-05-09T10:58:48.200Z,12.10
2019-05-09T11:01:18.442Z,12.40
2019-05-09T11:03:48.217Z,12.50
2019-05-09T11:06:18.347Z,12.80
2019-05-09T11:08:47.811Z,12.90
2019-05-09T11:11:18.286Z,13.00
2019-05-09T11:13:48.255Z,12.90
2019-05-09T11:16:18.320Z,12.40
2019-05-09T11:18:48.275Z,12.00
2019-05-09T11:21:19.138Z,11.90
2019-05-09T11:23:48.827Z,11.90
2019-05-09T11:26:18.079Z,12.10
2019-05-09T11:28:46.883Z,12.30
2019-05-09T11:31:18.025Z,12.00
2019-05-09T11:33:48.144Z,11.80
2019-05-09T11:36:20.733Z,11.60
2019-05-09T11:38:49.075Z,11.40
2019-05-09T11:41:18.906Z,11.20
2019-05-09T11:43:48.582Z,10.70
2019-05-09T11:46:18.004Z,10.40
2019-05-09T11:48:46.903Z,10.20
2019-05-09T11:51:17.890Z,10.20
2019-05-09T11:53:48.317Z,10.00
2019-05-09T11:56:17.902Z,9.80
2019-05-09T11:58:48.148Z,9.80
2019-05-09T12:01:18.609Z,9.60
2019-05-09T12:03:49.865Z,9.70
2019-05-09T12:06:19.673Z,9.80
2019-05-09T12:08:48.297Z,10.00
2019-05-09T12:11:18.145Z,10.20
2019-05-09T12:13:48.510Z,10.30
2019-05-09T12:16:18.393Z,10.30
2019-05-09T12:18:48.928Z,10.20
2019-05-09T12:21:19.101Z,10.10
2019-05-09T12:23:48.791Z,10.20
2019-05-09T12:26:17.950Z,10.50
2019-05-09T12:28:48.258Z,11.00
2019-05-09T12:31:18.187Z,11.60
2019-05-09T12:33:48.431Z,12.10
2019-05-09T12:36:19.157Z,12.50
2019-05-09T12:38:49.790Z,12.60
2019-05-09T12:41:18.927Z,12.90
2019-05-09T12:43:47.723Z,13.10
2019-05-09T12:46:16.175Z,13.20
2019-05-09T12:48:44.637Z,13.00
2019-05-09T12:51:13.227Z,12.30
2019-05-09T12:53:41.818Z,12.20
2019-05-09T12:56:10.283Z,12.20
2019-05-09T12:58:38.750Z,12.30
2019-05-09T13:01:07.650Z,12.30
2019-05-09T13:03:38.232Z,12.20
2019-05-09T13:06:08.080Z,12.40
2019-05-09T13:08:38.544Z,12.40
2019-05-09T13:11:08.001Z,12.60
2019-05-09T13:13:40.659Z,12.40
2019-05-09T13:16:12.018Z,12.00
2019-05-09T13:19:00.217Z,11.70
2019-05-09T13:21:29.740Z,11.30
2019-05-09T13:23:58.819Z,11.10
2019-05-09T13:26:28.945Z,11.00
2019-05-09T13:28:58.932Z,10.90
2019-05-09T13:31:29.401Z,10.60
2019-05-09T13:33:58.393Z,10.40
2019-05-09T13:36:28.506Z,10.30
2019-05-09T13:39:04.181Z,10.60
2019-05-09T13:41:27.544Z,11.20
2019-05-09T13:43:59.204Z,11.90
2019-05-09T13:46:28.259Z,12.50
2019-05-09T13:49:08.323Z,12.80
2019-05-09T13:51:26.554Z,13.30
2019-05-09T13:53:55.114Z,14.00
2019-05-09T13:56:23.647Z,14.50
2019-05-09T13:58:52.159Z,14.60
2019-05-09T14:01:20.603Z,14.80
2019-05-09T14:03:49.275Z,14.40
2019-05-09T14:06:17.785Z,14.40
2019-05-09T14:08:48.951Z,13.50
2019-05-09T14:11:19.120Z,13.30
2019-05-09T14:13:48.757Z,13.20
2019-05-09T14:16:21.690Z,13.40
2019-05-09T14:18:48.614Z,13.30
2019-05-09T14:21:21.428Z,13.00
2019-05-09T14:24:00.856Z,12.70
2019-05-09T14:26:18.079Z,12.30
2019-05-09T14:28:48.888Z,12.20
2019-05-09T14:31:18.645Z,12.20
2019-05-09T14:33:47.740Z,12.00
2019-05-09T14:36:16.290Z,11.70
2019-05-09T14:38:44.824Z,11.40
2019-05-09T14:41:13.311Z,11.20
2019-05-09T14:43:41.750Z,11.10
2019-05-09T14:46:10.175Z,10.90
2019-05-09T14:48:38.656Z,10.80
2019-05-09T14:51:07.775Z,10.90
2019-05-09T14:53:38.879Z,11.10
2019-05-09T14:56:08.707Z,11.10
2019-05-09T14:58:38.779Z,11.20
2019-05-09T15:01:08.557Z,11.30
2019-05-09T15:03:38.954Z,11.50
2019-05-09T15:06:07.629Z,11.60
2019-05-09T15:08:38.115Z,11.50
2019-05-09T15:11:09.683Z,11.70
2019-05-09T15:13:36.520Z,11.60
2019-05-09T15:16:04.985Z,11.40
2019-05-09T15:18:33.421Z,11.30
2019-05-09T15:21:02.978Z,11.10
2019-05-09T15:23:31.495Z,11.00
2019-05-09T15:26:00.043Z,11.10
2019-05-09T15:28:29.162Z,11.20
2019-05-09T15:30:59.353Z,11.40
2019-05-09T15:33:28.002Z,11.80
2019-05-09T15:35:58.706Z,12.30
2019-05-09T15:38:28.747Z,12.50
2019-05-09T15:40:57.000Z,13.10
2019-05-09T15:43:25.655Z,13.70
2019-05-09T15:45:58.435Z,14.20
2019-05-09T15:48:27.503Z,14.40
2019-05-09T15:50:58.135Z,14.40
2019-05-09T15:53:27.803Z,14.40
2019-05-09T15:55:58.646Z,14.50
2019-05-09T15:58:28.713Z,14.00
2019-05-09T16:00:58.878Z,13.70
2019-05-09T16:03:27.847Z,13.40
2019-05-09T16:05:58.415Z,13.30
2019-05-09T16:08:28.734Z,13.20
2019-05-09T16:10:58.133Z,13.00
2019-05-09T16:13:28.508Z,12.70
2019-05-09T16:15:57.660Z,12.50
2019-05-09T16:18:28.643Z,12.10
2019-05-09T16:20:58.026Z,11.90
2019-05-09T16:23:29.047Z,11.70
2019-05-09T16:25:58.610Z,11.70
2019-05-09T16:28:27.310Z,11.70
2019-05-09T16:30:55.827Z,11.60
2019-05-09T16:33:24.324Z,11.50
2019-05-09T16:35:53.216Z,11.50
2019-05-09T16:38:21.688Z,11.30
2019-05-09T16:40:50.157Z,11.30
2019-05-09T16:43:18.767Z,11.50
2019-05-09T16:45:47.772Z,11.60
2019-05-09T16:48:18.507Z,11.80
2019-05-09T16:50:57.662Z,11.70
2019-05-09T16:53:18.642Z,11.60
2019-05-09T16:55:47.248Z,11.60
2019-05-09T16:58:18.583Z,11.60
2019-05-09T17:00:51.290Z,12.10
2019-05-09T17:03:19.821Z,12.40
2019-05-09T17:05:48.392Z,12.60
2019-05-09T17:08:17.783Z,12.70
2019-05-09T17:10:48.645Z,12.90
2019-05-09T17:13:18.449Z,12.80
2019-05-09T17:15:46.943Z,12.60
2019-05-09T17:18:15.455Z,12.50
2019-05-09T17:20:51.126Z,12.40
2019-05-09T17:23:24.043Z,12.70
2019-05-09T17:25:52.497Z,13.20
2019-05-09T17:28:21.021Z,13.10
2019-05-09T17:30:49.567Z,12.70
2019-05-09T17:33:18.203Z,12.50
2019-05-09T17:35:48.261Z,12.30
2019-05-09T17:38:18.033Z,12.10
2019-05-09T17:40:48.495Z,12.40
2019-05-09T17:43:18.277Z,12.20
2019-05-09T17:45:47.809Z,12.00
2019-05-09T17:48:18.376Z,11.90
2019-05-09T17:50:46.769Z,12.00
2019-05-09T17:53:15.214Z,12.40
2019-05-09T17:55:43.754Z,13.10
2019-05-09T17:58:26.170Z,13.50
2019-05-09T18:00:42.376Z,13.40
2019-05-09T18:03:10.840Z,12.70
2019-05-09T18:05:39.299Z,12.20
2019-05-09T18:08:08.192Z,11.90
2019-05-09T18:10:38.063Z,11.70
2019-05-09T18:13:08.016Z,12.00
2019-05-09T18:15:37.799Z,12.00
2019-05-09T18:18:06.540Z,11.80
2019-05-09T18:20:37.699Z,11.40
2019-05-09T18:23:05.352Z,11.10
2019-05-09T18:25:33.784Z,10.70
2019-05-09T18:28:02.236Z,10.40
2019-05-09T18:30:30.749Z,10.10
2019-05-09T18:33:03.320Z,9.80
2019-05-09T18:35:33.002Z,9.60
2019-05-09T18:38:01.895Z,9.30
2019-05-09T18:40:30.337Z,9.10
2019-05-09T18:42:58.784Z,8.90
2019-05-09T18:45:28.294Z,8.80
2019-05-09T18:47:57.990Z,8.60
2019-05-09T18:50:26.837Z,8.40
2019-05-09T18:52:55.427Z,8.30
2019-05-09T18:55:23.862Z,8.10
2019-05-09T18:57:52.309Z,8.00
2019-05-09T19:00:21.602Z,7.80
2019-05-09T19:02:50.353Z,7.70
2019-05-09T19:05:20.119Z,7.60
2019-05-09T19:07:48.595Z,7.50
2019-05-09T19:10:18.122Z,7.50
2019-05-09T19:12:46.857Z,7.40
2019-05-09T19:15:35.356Z,7.30
2019-05-09T19:18:08.199Z,7.30
2019-05-09T19:20:41.010Z,7.20
2019-05-09T19:23:09.462Z,7.20
2019-05-09T19:25:37.983Z,7.10
2019-05-09T19:28:06.445Z,7.00
2019-05-09T19:30:34.884Z,6.90
2019-05-09T19:33:03.476Z,7.00
2019-05-09T19:35:31.919Z,6.90
2019-05-09T19:38:00.390Z,6.90
2019-05-09T19:40:28.841Z,7.00
2019-05-09T19:42:57.279Z,7.00
2019-05-09T19:45:25.940Z,7.00
2019-05-09T19:47:54.411Z,7.00
2019-05-09T19:50:22.931Z,7.10
2019-05-09T19:52:51.366Z,7.10
2019-05-09T19:55:19.823Z,7.10
2019-05-09T19:57:48.275Z,7.10
2019-05-09T20:00:17.143Z,7.10
2019-05-09T20:02:45.623Z,7.10
2019-05-09T20:05:14.410Z,7.10
2019-05-09T20:07:42.899Z,7.00
2019-05-09T20:10:13.329Z,7.00
2019-05-09T20:12:49.235Z,7.00
2019-05-09T20:15:22.446Z,6.90
2019-05-09T20:17:50.924Z,6.80
2019-05-09T20:20:19.462Z,6.80
2019-05-09T20:22:52.887Z,6.70
2019-05-09T20:25:18.139Z,6.80
2019-05-09T20:27:46.586Z,6.80
2019-05-09T20:30:15.290Z,6.80
2019-05-09T20:32:43.771Z,6.90
2019-05-09T20:35:12.375Z,6.90
2019-05-09T20:37:41.017Z,6.90
2019-05-09T20:40:09.776Z,6.80
2019-05-09T20:42:38.429Z,6.70
2019-05-09T20:45:07.221Z,6.70
2019-05-09T20:47:35.902Z,6.80
2019-05-09T20:50:06.511Z,6.70
2019-05-09T20:52:35.158Z,6.70
2019-05-09T20:55:05.210Z,6.80
2019-05-09T20:57:33.887Z,6.70
2019-05-09T21:00:02.591Z,6.70
2019-05-09T21:02:31.450Z,6.60
2019-05-09T21:05:00.269Z,6.60
2019-05-09T21:07:29.191Z,6.50
2019-05-09T21:09:57.902Z,6.50
2019-05-09T21:12:26.696Z,6.50
2019-05-09T21:14:55.389Z,6.50
2019-05-09T21:17:24.173Z,6.50
2019-05-09T21:19:52.824Z,6.50
2019-05-09T21:22:21.548Z,6.60
2019-05-09T21:24:50.344Z,6.70
2019-05-09T21:27:19.120Z,6.70
2019-05-09T21:29:47.776Z,6.80
2019-05-09T21:32:16.524Z,6.90
2019-05-09T21:34:45.131Z,7.00
2019-05-09T21:37:14.088Z,7.20
2019-05-09T21:39:42.768Z,7.40
2019-05-09T21:42:11.301Z,7.50
2019-05-09T21:44:39.826Z,7.50
2019-05-09T21:47:08.457Z,7.60
2019-05-09T21:49:36.982Z,7.70
2019-05-09T21:52:05.471Z,7.70
2019-05-09T21:54:33.987Z,7.60
2019-05-09T21:57:02.433Z,7.70
2019-05-09T21:59:30.900Z,7.70
2019-05-09T22:01:59.415Z,7.70
2019-05-09T22:04:27.927Z,7.60
2019-05-09T22:06:56.405Z,7.70
2019-05-09T22:09:24.858Z,7.70
2019-05-09T22:11:53.367Z,7.60
2019-05-09T22:14:21.819Z,7.60
2019-05-09T22:16:50.246Z,7.60
2019-05-09T22:19:18.691Z,7.60
2019-05-09T22:21:47.123Z,7.50
2019-05-09T22:24:15.565Z,7.40
2019-05-09T22:26:44.001Z,7.40
2019-05-09T22:29:12.450Z,7.40
2019-05-09T22:31:40.947Z,7.30
2019-05-09T22:34:09.399Z,7.30
2019-05-09T22:36:37.839Z,7.30
2019-05-09T22:39:07.687Z,7.30
2019-05-09T22:41:36.130Z,7.30
2019-05-09T22:44:04.564Z,7.30
2019-05-09T22:46:33.243Z,7.30
2019-05-09T22:49:01.941Z,7.30
2019-05-09T22:51:30.458Z,7.30
2019-05-09T22:54:11.455Z,7.30
2019-05-09T22:56:29.057Z,7.30
2019-05-09T22:58:57.512Z,7.30
2019-05-09T23:01:25.950Z,7.30
2019-05-09T23:03:54.389Z,7.30
2019-05-09T23:06:22.846Z,7.20
2019-05-09T23:08:51.303Z,7.30
2019-05-09T23:11:19.980Z,7.30
2019-05-09T23:13:54.137Z,7.30
2019-05-09T23:16:27.497Z,7.30
2019-05-09T23:18:56.019Z,7.30
2019-05-09T23:21:26.355Z,7.20
2019-05-09T23:24:01.871Z,7.20
2019-05-09T23:26:30.387Z,7.20
2019-05-09T23:28:58.915Z,7.10
2019-05-09T23:31:34.658Z,7.10
2019-05-09T23:34:03.110Z,7.20
2019-05-09T23:36:31.551Z,7.20
2019-05-09T23:39:10.070Z,7.20
2019-05-09T23:41:38.661Z,7.20
2019-05-09T23:44:07.103Z,7.30
2019-05-09T23:46:35.534Z,7.30
2019-05-09T23:49:04.002Z,7.30
2019-05-09T23:51:45.867Z,7.30
2019-05-09T23:54:45.231Z,7.40
2019-05-09T23:57:21.888Z,7.40
